Time;durP1;ratioP1;P1;durP2;ratioP2;P2;SDS_P1;SDS_P2;PMS_P1;PMS_P2;Temp;Humidity;BMP_temperature;BMP_pressure;BME280_temperature;BME280_humidity;BME280_pressure;Samples;Min_cycle;Max_cycle;Signal;HPM_P1;HPM_P2
2022/04/08 00:02:21;;;;;;;4.27;1.70;;;6.20;99.90;;;;;;10319594;28;20229;-77
2022/04/08 00:07:45;;;;;;;3.23;1.30;;;6.20;99.90;;;;;;10319025;28;20208;-78
2022/04/08 00:13:07;;;;;;;5.53;1.93;;;6.30;99.90;;;;;;10318261;28;20205;-79
2022/04/08 00:18:29;;;;;;;4.63;1.70;;;6.30;99.90;;;;;;10302091;28;20200;-77
2022/04/08 00:23:51;;;;;;;2.03;1.30;;;6.30;99.90;;;;;;10304309;28;20230;-77
2022/04/08 00:29:15;;;;;;;4.40;1.70;;;6.30;99.90;;;;;;10331051;28;20203;-78
2022/04/08 00:34:37;;;;;;;5.17;2.20;;;6.40;99.90;;;;;;10318571;28;20196;-79
2022/04/08 00:39:58;;;;;;;8.30;3.37;;;6.30;99.90;;;;;;10317771;28;20226;-77
2022/04/08 00:45:20;;;;;;;4.00;1.73;;;6.20;99.90;;;;;;10317921;28;20261;-76
2022/04/08 00:50:44;;;;;;;2.77;1.80;;;6.20;99.90;;;;;;10317892;28;20195;-77
2022/04/08 00:56:06;;;;;;;3.60;1.70;;;6.20;99.90;;;;;;10289184;28;20267;-79
2022/04/08 01:01:28;;;;;;;4.33;1.80;;;6.10;99.90;;;;;;10316401;28;20226;-79
2022/04/08 01:06:49;;;;;;;2.63;1.40;;;6.10;99.90;;;;;;10320056;28;20198;-77
2022/04/08 01:12:10;;;;;;;4.33;1.90;;;6.20;99.90;;;;;;10304592;28;20206;-77
2022/04/08 01:17:32;;;;;;;3.50;1.50;;;6.30;99.90;;;;;;10286569;28;20203;-77
2022/04/08 01:22:53;;;;;;;2.90;1.30;;;6.30;99.90;;;;;;10316329;28;20291;-79
2022/04/08 01:28:14;;;;;;;3.73;1.60;;;6.30;99.90;;;;;;10297223;28;20392;-78
2022/04/08 01:33:35;;;;;;;2.43;1.50;;;6.30;99.90;;;;;;10285581;28;20456;-79
2022/04/08 01:38:57;;;;;;;5.13;1.80;;;6.30;99.90;;;;;;10316360;28;20522;-77
2022/04/08 01:44:18;;;;;;;2.57;1.30;;;6.30;99.90;;;;;;10314702;28;20536;-77
2022/04/08 01:49:39;;;;;;;4.50;1.70;;;6.20;99.90;;;;;;10284776;28;20560;-79
2022/04/08 01:55:01;;;;;;;4.40;1.83;;;6.20;99.90;;;;;;10315800;28;20202;-81
2022/04/08 02:00:22;;;;;;;5.73;2.13;;;6.10;99.90;;;;;;10284675;28;20255;-78
2022/04/08 02:05:43;;;;;;;3.53;1.57;;;6.00;99.90;;;;;;10300707;28;20218;-77
2022/04/08 02:11:05;;;;;;;4.17;1.87;;;6.10;99.90;;;;;;10315115;28;20204;-77
2022/04/08 02:16:26;;;;;;;17.70;8.00;;;6.10;99.90;;;;;;10315449;28;20197;-77
2022/04/08 02:21:48;;;;;;;3.60;1.90;;;6.10;99.90;;;;;;10314267;28;20238;-81
2022/04/08 02:27:09;;;;;;;3.40;1.70;;;6.10;99.90;;;;;;10317037;28;20191;-77
2022/04/08 02:32:31;;;;;;;4.10;1.63;;;6.10;99.90;;;;;;10327755;28;20277;-77
2022/04/08 02:37:52;;;;;;;5.17;1.50;;;6.10;99.90;;;;;;10315192;28;20505;-78
2022/04/08 02:43:13;;;;;;;3.80;1.20;;;6.10;99.90;;;;;;10297594;28;20244;-80
2022/04/08 02:48:35;;;;;;;3.20;1.47;;;6.10;99.90;;;;;;10297499;28;20250;-78
2022/04/08 02:53:56;;;;;;;4.77;1.60;;;6.20;99.90;;;;;;10314478;28;20510;-78
2022/04/08 02:59:17;;;;;;;3.47;1.67;;;6.10;99.90;;;;;;10314571;28;20393;-84
2022/04/08 03:04:38;;;;;;;2.63;1.70;;;6.10;99.90;;;;;;10306294;28;20222;-77
2022/04/08 03:09:59;;;;;;;2.43;1.53;;;6.00;99.90;;;;;;10320355;28;20206;-78
2022/04/08 03:15:20;;;;;;;3.90;1.97;;;6.00;99.90;;;;;;10321796;28;20187;-77
2022/04/08 03:20:42;;;;;;;3.87;2.00;;;5.90;99.90;;;;;;10321349;28;20553;-77
2022/04/08 03:26:03;;;;;;;4.73;2.30;;;5.90;99.90;;;;;;10320777;28;20221;-77
2022/04/08 03:31:24;;;;;;;3.13;2.17;;;5.90;99.90;;;;;;10333176;28;20230;-78
2022/04/08 03:36:47;;;;;;;5.27;2.10;;;5.90;99.90;;;;;;10290029;28;20196;-76
2022/04/08 03:42:08;;;;;;;5.00;2.13;;;5.90;99.90;;;;;;10320447;28;20272;-77
2022/04/08 03:47:29;;;;;;;1.83;1.20;;;5.80;99.90;;;;;;10291246;28;20396;-76
2022/04/08 03:52:50;;;;;;;3.03;1.60;;;5.70;99.90;;;;;;10319994;28;20519;-78
2022/04/08 03:58:12;;;;;;;1.90;1.57;;;5.70;99.90;;;;;;10318805;28;20203;-79
2022/04/08 04:03:33;;;;;;;2.87;1.57;;;5.70;99.90;;;;;;10319720;28;20459;-85
2022/04/08 04:08:54;;;;;;;1.40;1.30;;;5.60;99.90;;;;;;10319888;28;20230;-85
2022/04/08 04:14:16;;;;;;;2.37;1.73;;;5.60;99.90;;;;;;10317537;28;20221;-82
2022/04/08 04:19:37;;;;;;;3.63;1.97;;;5.60;99.90;;;;;;10304725;28;20535;-79
2022/04/08 04:24:58;;;;;;;3.90;2.60;;;5.60;99.90;;;;;;10304219;28;20214;-81
2022/04/08 04:30:19;;;;;;;1.40;1.20;;;5.60;99.90;;;;;;10313709;28;20202;-78
2022/04/08 04:35:40;;;;;;;1.00;0.90;;;5.60;99.90;;;;;;10318423;28;20194;-79
2022/04/08 04:41:02;;;;;;;2.30;1.00;;;5.60;99.90;;;;;;10303641;28;20231;-79
2022/04/08 04:46:23;;;;;;;1.00;0.80;;;5.40;99.90;;;;;;10316529;28;20209;-78
2022/04/08 04:51:44;;;;;;;1.63;0.80;;;5.20;99.90;;;;;;10287032;28;20217;-77
2022/04/08 04:57:05;;;;;;;1.03;0.53;;;5.20;99.90;;;;;;10303151;28;20221;-77
2022/04/08 05:02:27;;;;;;;2.87;1.00;;;5.10;99.90;;;;;;10317339;28;20520;-77
2022/04/08 05:07:48;;;;;;;2.37;0.90;;;5.00;99.90;;;;;;10302438;28;20417;-78
2022/04/08 05:13:09;;;;;;;1.60;0.90;;;5.00;99.90;;;;;;10315721;28;20201;-79
2022/04/08 05:18:30;;;;;;;2.20;0.97;;;4.90;99.90;;;;;;10315974;28;20201;-85
2022/04/08 05:23:52;;;;;;;1.90;0.87;;;4.80;99.90;;;;;;10315079;28;20534;-79
2022/04/08 05:29:13;;;;;;;7.23;1.80;;;4.80;99.90;;;;;;10314044;28;20277;-79
2022/04/08 05:34:34;;;;;;;2.97;1.10;;;4.80;99.90;;;;;;10301967;28;20196;-78
2022/04/08 05:39:56;;;;;;;4.63;0.90;;;4.80;99.90;;;;;;10301925;28;20261;-77
2022/04/08 05:45:21;;;;;;;3.00;1.03;;;4.80;99.90;;;;;;10290874;28;20289;-78
2022/04/08 05:50:42;;;;;;;5.37;1.10;;;4.80;99.90;;;;;;10261401;29;20202;-81
2022/04/08 05:56:04;;;;;;;4.60;1.37;;;4.80;99.90;;;;;;10275438;28;20384;-78
2022/04/08 06:01:25;;;;;;;5.00;1.43;;;4.80;99.90;;;;;;10274696;29;20237;-79
2022/04/08 06:06:46;;;;;;;2.23;1.53;;;4.80;99.90;;;;;;10274295;29;20245;-78
2022/04/08 06:12:08;;;;;;;3.83;1.60;;;4.80;99.90;;;;;;10289527;28;20404;-79
2022/04/08 06:17:39;;;;;;;5.90;1.50;;;4.90;99.90;;;;;;10274873;29;20553;-78
2022/04/08 06:23:00;;;;;;;2.20;1.07;;;4.80;99.90;;;;;;10274834;28;20264;-77
2022/04/08 06:28:21;;;;;;;3.60;1.03;;;4.90;99.90;;;;;;10286000;28;20351;-77
2022/04/08 06:33:42;;;;;;;5.00;1.63;;;4.90;99.90;;;;;;10273821;29;20208;-78
2022/04/08 06:39:04;;;;;;;3.33;0.93;;;4.90;99.90;;;;;;10280630;28;20194;-77
2022/04/08 06:44:25;;;;;;;3.13;1.13;;;5.00;99.90;;;;;;10281654;29;20241;-81
2022/04/08 06:49:46;;;;;;;3.67;1.40;;;5.10;99.90;;;;;;10282941;29;20198;-80
2022/04/08 06:55:09;;;;;;;3.17;1.00;;;5.40;99.90;;;;;;10281258;29;20266;-77
2022/04/08 07:00:32;;;;;;;4.03;1.23;;;6.00;99.90;;;;;;10282312;29;20223;-81
2022/04/08 07:05:54;;;;;;;3.07;1.30;;;5.80;99.90;;;;;;10281766;29;20195;-80
2022/04/08 07:11:15;;;;;;;2.47;1.33;;;5.60;99.90;;;;;;10284553;29;20261;-77
2022/04/08 07:16:37;;;;;;;6.73;2.10;;;5.90;99.90;;;;;;10253851;28;20294;-77
2022/04/08 07:21:58;;;;;;;12.10;1.90;;;6.80;99.90;;;;;;10283922;28;20470;-77
2022/04/08 07:27:20;;;;;;;2.47;1.37;;;6.60;99.90;;;;;;10280464;28;20193;-80
2022/04/08 07:32:41;;;;;;;3.30;1.07;;;6.20;99.90;;;;;;10304446;28;20205;-77
2022/04/08 07:38:05;;;;;;;3.57;1.13;;;5.80;99.90;;;;;;10316862;28;20208;-77
2022/04/08 07:43:26;;;;;;;3.07;1.30;;;5.70;99.90;;;;;;10323071;28;20240;-84
2022/04/08 07:48:48;;;;;;;3.23;1.40;;;6.10;99.90;;;;;;10313808;28;20195;-76
2022/04/08 07:54:09;;;;;;;13.40;1.77;;;7.90;99.90;;;;;;10314211;28;20193;-77
2022/04/08 07:59:30;;;;;;;7.67;2.00;;;9.20;99.90;;;;;;10299887;28;20270;-76
2022/04/08 08:04:51;;;;;;;6.20;1.53;;;9.90;99.90;;;;;;10299809;28;20229;-76
2022/04/08 08:10:31;;;;;;;6.37;1.40;;;9.70;99.90;;;;;;10314309;28;20280;-76
2022/04/08 08:15:54;;;;;;;8.67;1.30;;;9.30;99.90;;;;;;10292969;28;20225;-76
2022/04/08 08:21:16;;;;;;;5.60;1.40;;;8.70;99.90;;;;;;10312967;28;20562;-78
2022/04/08 08:26:37;;;;;;;6.40;1.40;;;9.10;99.90;;;;;;10297189;28;20442;-79
2022/04/08 08:31:59;;;;;;;5.67;2.20;;;9.60;99.90;;;;;;10287966;28;20205;-77
2022/04/08 08:37:20;;;;;;;3.67;1.43;;;10.50;99.90;;;;;;10297917;28;20208;-78
2022/04/08 08:42:42;;;;;;;5.73;1.37;;;11.20;97.80;;;;;;10312551;28;20252;-79
2022/04/08 08:48:05;;;;;;;3.27;1.17;;;11.20;94.70;;;;;;10313304;28;20201;-76
2022/04/08 08:53:29;;;;;;;3.93;1.10;;;11.50;92.50;;;;;;10311945;28;20302;-79
2022/04/08 08:58:51;;;;;;;8.03;2.40;;;11.80;88.40;;;;;;10298003;28;20247;-85
2022/04/08 09:04:12;;;;;;;5.97;1.87;;;12.80;70.40;;;;;;10312020;28;20224;-83
2022/04/08 09:09:33;;;;;;;4.27;1.67;;;12.90;51.40;;;;;;10312854;28;20209;-82
2022/04/08 09:14:57;;;;;;;4.80;1.57;;;13.00;47.80;;;;;;10294413;28;20225;-83
2022/04/08 09:20:20;;;;;;;8.67;2.93;;;13.10;42.90;;;;;;10293624;28;20448;-80
2022/04/08 09:25:42;;;;;;;5.70;1.30;;;13.00;41.60;;;;;;10309900;28;20286;-78
2022/04/08 09:31:05;;;;;;;5.17;1.70;;;12.60;36.40;;;;;;10309294;28;20437;-83
2022/04/08 09:36:31;;;;;;;6.00;2.10;;;11.70;39.30;;;;;;10309420;28;20259;-80
2022/04/08 09:41:55;;;;;;;11.70;2.03;;;10.60;42.60;;;;;;10293803;28;20251;-82
2022/04/08 09:47:16;;;;;;;7.27;2.47;;;9.80;47.20;;;;;;10281147;28;20252;-80
2022/04/08 09:52:39;;;;;;;6.90;1.63;;;10.10;48.00;;;;;;10309983;28;20208;-77
2022/04/08 09:58:04;;;;;;;6.37;1.60;;;10.70;43.00;;;;;;10292878;28;20202;-78
2022/04/08 10:03:25;;;;;;;12.00;2.70;;;11.20;38.60;;;;;;10296132;28;20598;-77
2022/04/08 10:08:47;;;;;;;8.10;1.87;;;11.70;38.20;;;;;;10311544;28;20201;-76
2022/04/08 10:14:28;;;;;;;8.93;1.70;;;11.70;38.00;;;;;;10306065;28;20305;-78
2022/04/08 10:19:50;;;;;;;10.40;1.93;;;11.60;37.10;;;;;;10292608;28;20242;-81
2022/04/08 10:25:16;;;;;;;3.80;1.13;;;12.40;35.60;;;;;;10294417;28;20245;-81
2022/04/08 10:30:47;;;;;;;5.73;1.30;;;13.00;33.10;;;;;;10295768;28;20199;-87
2022/04/08 10:36:08;;;;;;;5.43;1.73;;;12.90;31.80;;;;;;10295215;28;20199;-79
2022/04/08 10:41:29;;;;;;;7.17;2.10;;;13.50;32.20;;;;;;10312930;28;20551;-74
2022/04/08 10:46:52;;;;;;;6.73;1.50;;;13.50;31.50;;;;;;10309575;28;20494;-79
2022/04/08 10:52:25;;;;;;;9.57;2.10;;;13.10;30.90;;;;;;10310730;28;20225;-78
2022/04/08 10:57:53;;;;;;;13.83;2.47;;;13.50;30.80;;;;;;10309406;28;20197;-83
2022/04/08 11:03:14;;;;;;;10.47;3.47;;;13.50;30.00;;;;;;10309608;28;20280;-80
2022/04/08 11:08:36;;;;;;;5.00;1.40;;;12.50;31.00;;;;;;10308312;28;20216;-78
2022/04/08 11:13:58;;;;;;;4.63;1.50;;;11.40;32.30;;;;;;10306083;28;20230;-77
2022/04/08 11:19:21;;;;;;;8.77;2.30;;;10.40;33.70;;;;;;10293919;28;20217;-78
2022/04/08 11:24:46;;;;;;;8.83;1.83;;;10.10;36.70;;;;;;10296960;28;20610;-78
2022/04/08 11:30:08;;;;;;;11.13;3.00;;;10.80;38.20;;;;;;10343590;28;20210;-79
2022/04/08 11:35:31;;;;;;;6.20;1.97;;;11.90;34.70;;;;;;10344311;28;20204;-79
2022/04/08 11:40:53;;;;;;;11.60;3.67;;;11.40;33.90;;;;;;10329109;28;20565;-80
2022/04/08 11:46:17;;;;;;;11.20;3.10;;;11.20;34.90;;;;;;10308147;28;20200;-81
2022/04/08 11:51:41;;;;;;;5.80;2.00;;;10.50;37.20;;;;;;10267442;28;20213;-82
2022/04/08 11:57:07;;;;;;;4.63;1.33;;;10.30;38.80;;;;;;10314295;28;20274;-79
2022/04/08 12:02:30;;;;;;;6.40;2.13;;;10.30;39.70;;;;;;10313829;28;20221;-80
2022/04/08 12:07:59;;;;;;;4.80;1.70;;;9.90;40.70;;;;;;10300161;28;20201;-78
2022/04/08 12:13:25;;;;;;;8.13;2.13;;;10.30;43.60;;;;;;10272006;28;20211;-80
2022/04/08 12:18:54;;;;;;;7.77;1.67;;;11.60;42.80;;;;;;10298656;28;20503;-86
2022/04/08 12:24:18;;;;;;;3.90;1.20;;;12.50;36.40;;;;;;10300754;28;20251;-78
2022/04/08 12:29:40;;;;;;;7.20;1.53;;;11.80;35.70;;;;;;10336352;28;20197;-82
2022/04/08 12:35:02;;;;;;;7.07;1.23;;;11.60;37.80;;;;;;10350327;28;20200;-84
2022/04/08 12:40:23;;;;;;;7.93;1.77;;;12.20;36.80;;;;;;10333754;28;20231;-79
2022/04/08 12:45:44;;;;;;;6.00;1.50;;;12.30;35.30;;;;;;10237640;28;20243;-77
2022/04/08 12:51:07;;;;;;;6.17;1.70;;;11.50;34.00;;;;;;10264994;29;20291;-77
2022/04/08 12:56:28;;;;;;;3.63;1.20;;;11.00;37.10;;;;;;10273041;28;20192;-87
2022/04/08 13:01:49;;;;;;;5.63;2.17;;;11.10;39.40;;;;;;10272098;29;20288;-82
2022/04/08 13:07:10;;;;;;;11.47;2.27;;;11.50;40.10;;;;;;10273546;29;20430;-87
2022/04/08 13:12:35;;;;;;;9.07;1.80;;;11.40;38.60;;;;;;10271118;28;20240;-87
2022/04/08 13:17:58;;;;;;;6.70;2.77;;;10.60;39.30;;;;;;10243369;28;20209;-76
2022/04/08 13:23:19;;;;;;;5.77;1.83;;;10.30;51.90;;;;;;10232685;29;20243;-80
2022/04/08 13:28:40;;;;;;;5.97;2.17;;;11.10;50.90;;;;;;10259045;28;20192;-80
2022/04/08 13:34:02;;;;;;;6.90;2.43;;;11.00;45.40;;;;;;10308812;28;20237;-78
2022/04/08 13:39:29;;;;;;;6.97;1.80;;;11.10;41.40;;;;;;10309157;28;20210;-82
2022/04/08 13:44:50;;;;;;;4.30;1.47;;;11.30;37.80;;;;;;10276649;28;20248;-77
2022/04/08 13:50:12;;;;;;;10.43;2.50;;;11.20;35.40;;;;;;10270502;29;20235;-80
2022/04/08 13:55:34;;;;;;;7.90;2.43;;;11.00;35.00;;;;;;10271165;29;20223;-80
2022/04/08 14:00:55;;;;;;;7.90;2.03;;;10.90;36.30;;;;;;10271084;29;20224;-78
2022/04/08 14:06:17;;;;;;;6.70;1.97;;;11.10;36.40;;;;;;10271927;29;20375;-77
2022/04/08 14:11:38;;;;;;;6.83;2.03;;;11.20;35.80;;;;;;10268806;28;20256;-78
2022/04/08 14:16:59;;;;;;;6.90;2.07;;;10.90;33.10;;;;;;10261855;28;20248;-77
2022/04/08 14:22:21;;;;;;;6.27;1.97;;;10.60;32.60;;;;;;10291041;28;20607;-78
2022/04/08 14:27:42;;;;;;;10.50;2.73;;;10.80;35.30;;;;;;10298120;28;20191;-79
2022/04/08 14:33:04;;;;;;;5.47;1.90;;;10.80;35.30;;;;;;10294476;28;20205;-77
2022/04/08 14:38:25;;;;;;;5.67;1.67;;;10.70;35.70;;;;;;10270816;28;20200;-79
2022/04/08 14:43:49;;;;;;;6.13;1.70;;;10.50;34.60;;;;;;10315633;28;20263;-81
2022/04/08 14:49:12;;;;;;;5.60;1.93;;;10.60;35.30;;;;;;10310129;28;20192;-85
2022/04/08 14:54:37;;;;;;;10.77;5.73;;;10.60;35.50;;;;;;10308415;28;20387;-81
2022/04/08 14:59:59;;;;;;;10.83;3.97;;;10.40;36.10;;;;;;10314656;28;20276;-75
2022/04/08 15:05:22;;;;;;;7.05;2.33;;;10.50;35.30;;;;;;10320668;28;20513;-77
2022/04/08 15:10:48;;;;;;;3.93;1.77;;;10.40;34.60;;;;;;10321536;28;20265;-79
2022/04/08 15:16:10;;;;;;;5.33;1.60;;;10.40;34.60;;;;;;10320459;28;20514;-77
2022/04/08 15:21:32;;;;;;;5.13;2.23;;;10.40;35.50;;;;;;10321146;28;20224;-77
2022/04/08 15:26:54;;;;;;;5.70;1.63;;;10.40;33.60;;;;;;10306161;28;20213;-79
2022/04/08 15:32:15;;;;;;;3.87;1.80;;;10.30;33.30;;;;;;10305768;28;20387;-79
2022/04/08 15:37:42;;;;;;;9.47;2.70;;;10.10;33.90;;;;;;10319826;28;20544;-81
2022/04/08 15:43:06;;;;;;;6.57;2.47;;;10.00;31.50;;;;;;10305801;28;20232;-78
2022/04/08 15:48:28;;;;;;;4.83;1.67;;;10.00;33.40;;;;;;10319340;28;20197;-79
2022/04/08 15:53:49;;;;;;;8.17;2.97;;;9.90;35.00;;;;;;10320167;28;20223;-77
2022/04/08 15:59:10;;;;;;;5.00;2.53;;;9.70;36.40;;;;;;10320298;28;20198;-78
2022/04/08 16:04:31;;;;;;;6.03;2.97;;;9.60;35.30;;;;;;10289339;28;20226;-82
2022/04/08 16:09:54;;;;;;;5.57;2.00;;;9.50;35.60;;;;;;10321682;28;20199;-78
2022/04/08 16:15:16;;;;;;;5.60;2.40;;;9.40;36.40;;;;;;10318466;28;20207;-78
2022/04/08 16:20:37;;;;;;;7.23;2.97;;;9.40;37.20;;;;;;10304577;28;20271;-78
2022/04/08 16:25:59;;;;;;;6.20;3.00;;;9.30;36.50;;;;;;10304692;28;20220;-78
2022/04/08 16:31:20;;;;;;;7.07;2.60;;;9.30;37.00;;;;;;10356240;28;20244;-79
2022/04/08 16:36:41;;;;;;;8.63;3.10;;;9.30;36.40;;;;;;10343867;28;20203;-78
2022/04/08 16:42:04;;;;;;;4.30;1.70;;;9.10;36.90;;;;;;10366310;28;20246;-83
2022/04/08 16:47:25;;;;;;;6.70;2.40;;;9.00;36.80;;;;;;10323878;28;20198;-85
2022/04/08 16:52:48;;;;;;;4.23;1.37;;;9.00;37.10;;;;;;10321827;28;20196;-84
2022/04/08 16:58:16;;;;;;;7.40;2.03;;;8.90;37.50;;;;;;10336248;28;20215;-82
2022/04/08 17:03:37;;;;;;;3.37;1.57;;;8.70;38.90;;;;;;10334696;28;20263;-82
2022/04/08 17:08:59;;;;;;;3.87;2.13;;;8.70;40.00;;;;;;10317614;28;20233;-79
2022/04/08 17:14:20;;;;;;;3.23;1.57;;;8.60;41.10;;;;;;10290755;28;20503;-79
2022/04/08 17:19:42;;;;;;;3.10;1.47;;;8.60;42.80;;;;;;10308333;28;20201;-77
2022/04/08 17:25:05;;;;;;;3.27;1.70;;;8.50;49.90;;;;;;10335480;28;20224;-86
2022/04/08 17:30:27;;;;;;;5.37;2.87;;;8.30;55.70;;;;;;10330448;28;20187;-83
2022/04/08 17:35:49;;;;;;;3.10;2.03;;;8.30;57.40;;;;;;10353548;28;20198;-76
2022/04/08 17:41:10;;;;;;;6.77;2.83;;;8.30;57.80;;;;;;10346555;28;20213;-81
2022/04/08 17:46:32;;;;;;;9.00;4.17;;;8.30;56.40;;;;;;10264330;28;20488;-77
2022/04/08 17:51:55;;;;;;;7.73;3.17;;;8.20;54.90;;;;;;10337689;28;20228;-83
2022/04/08 17:57:32;;;;;;;13.57;8.53;;;8.20;55.00;;;;;;10319385;28;20203;-84
2022/04/08 18:03:05;;;;;;;12.33;4.97;;;8.20;54.70;;;;;;10315812;28;20234;-84
2022/04/08 18:08:42;;;;;;;21.77;10.63;;;8.20;54.80;;;;;;10318123;28;20195;-78
2022/04/08 18:14:05;;;;;;;22.73;7.40;;;8.10;59.80;;;;;;10326538;28;20212;-77
2022/04/08 18:19:28;;;;;;;6.50;3.60;;;8.10;69.40;;;;;;10286816;28;20275;-76
2022/04/08 18:24:49;;;;;;;8.43;3.77;;;8.10;74.10;;;;;;10300353;28;20245;-77
2022/04/08 18:30:11;;;;;;;4.50;2.90;;;7.90;90.60;;;;;;10311059;28;20199;-77
2022/04/08 18:35:33;;;;;;;11.77;3.77;;;7.50;99.90;;;;;;10344697;28;20200;-76
2022/04/08 18:40:54;;;;;;;9.53;2.90;;;7.10;99.90;;;;;;10363292;28;20196;-76
2022/04/08 18:46:15;;;;;;;10.33;3.70;;;;;;;;;;10348246;28;20494;-77
2022/04/08 18:51:37;;;;;;;8.40;3.57;;;6.80;99.90;;;;;;10350888;28;20190;-78
2022/04/08 18:56:58;;;;;;;16.13;7.00;;;6.70;99.90;;;;;;10307912;28;20248;-76
2022/04/08 19:02:21;;;;;;;26.43;12.53;;;6.60;99.90;;;;;;10322012;28;20305;-76
2022/04/08 19:07:43;;;;;;;28.23;12.27;;;6.50;99.90;;;;;;10321730;28;20393;-77
2022/04/08 19:13:05;;;;;;;35.77;15.03;;;6.40;99.90;;;;;;10321574;28;20200;-78
2022/04/08 19:18:27;;;;;;;31.53;15.67;;;6.40;99.90;;;;;;10321523;28;20457;-76
2022/04/08 19:23:48;;;;;;;26.60;12.10;;;6.40;99.90;;;;;;10306600;28;20229;-76
2022/04/08 19:29:11;;;;;;;34.03;13.30;;;6.50;99.90;;;;;;10309015;28;20193;-76
2022/04/08 19:34:32;;;;;;;60.60;23.33;;;6.50;99.90;;;;;;10361299;28;20195;-75
2022/04/08 19:39:53;;;;;;;55.23;20.93;;;6.50;99.90;;;;;;10361231;28;20191;-76
2022/04/08 19:45:15;;;;;;;13.50;6.57;;;6.50;99.90;;;;;;10359079;28;20237;-76
2022/04/08 19:50:36;;;;;;;11.77;4.70;;;6.50;99.90;;;;;;10323632;28;20259;-77
2022/04/08 19:56:01;;;;;;;11.17;2.93;;;6.50;99.90;;;;;;10305894;28;20192;-76
2022/04/08 20:01:22;;;;;;;12.60;4.60;;;6.30;99.90;;;;;;10318877;28;20219;-76
2022/04/08 20:06:43;;;;;;;7.87;3.57;;;6.30;99.90;;;;;;10319768;28;20407;-83
2022/04/08 20:12:05;;;;;;;8.47;4.60;;;6.10;99.90;;;;;;10305010;28;20384;-76
2022/04/08 20:17:27;;;;;;;7.43;3.40;;;6.00;99.90;;;;;;10317909;28;20214;-76
2022/04/08 20:22:48;;;;;;;10.50;4.97;;;5.90;99.90;;;;;;10318700;28;20238;-76
2022/04/08 20:28:10;;;;;;;17.97;8.37;;;5.80;99.90;;;;;;10328326;28;20222;-76
2022/04/08 20:33:31;;;;;;;79.77;35.70;;;5.70;99.90;;;;;;10359028;28;20199;-77
2022/04/08 20:38:52;;;;;;;26.23;11.40;;;5.60;99.90;;;;;;10341349;28;20481;-76
2022/04/08 20:44:14;;;;;;;25.73;10.83;;;5.50;99.90;;;;;;10358363;28;20232;-76
2022/04/08 20:49:35;;;;;;;21.20;8.27;;;5.40;99.90;;;;;;10358505;28;20191;-76
2022/04/08 20:54:57;;;;;;;10.27;5.33;;;5.30;99.90;;;;;;10277547;28;20216;-75
2022/04/08 21:00:20;;;;;;;8.00;3.57;;;5.40;99.90;;;;;;10277979;29;20194;-76
2022/04/08 21:05:42;;;;;;;5.47;2.00;;;5.50;99.90;;;;;;10277535;29;20290;-77
2022/04/08 21:11:04;;;;;;;4.00;2.10;;;5.50;99.90;;;;;;10305047;28;20205;-76
2022/04/08 21:16:25;;;;;;;5.83;2.20;;;5.30;99.90;;;;;;10316673;28;20399;-76
2022/04/08 21:21:47;;;;;;;4.93;2.00;;;5.20;99.90;;;;;;10316961;28;20227;-76
2022/04/08 21:27:08;;;;;;;4.87;2.40;;;5.20;99.90;;;;;;10304416;28;20349;-77
2022/04/08 21:32:29;;;;;;;5.83;2.73;;;5.10;99.90;;;;;;10339287;28;20201;-76
2022/04/08 21:37:51;;;;;;;14.13;11.07;;;5.10;99.90;;;;;;10356530;28;20223;-77
2022/04/08 21:43:12;;;;;;;4.83;3.60;;;5.10;99.90;;;;;;10356025;28;20245;-76
2022/04/08 21:48:34;;;;;;;4.43;2.40;;;5.00;99.90;;;;;;10325107;28;20221;-76
2022/04/08 21:53:58;;;;;;;3.53;2.20;;;5.00;99.90;;;;;;10318628;28;20199;-76
2022/04/08 21:59:20;;;;;;;5.23;1.80;;;5.00;99.90;;;;;;10314830;28;20198;-76
2022/04/08 22:04:41;;;;;;;14.53;5.57;;;5.00;99.90;;;;;;10301200;28;20587;-75
2022/04/08 22:10:02;;;;;;;7.97;4.13;;;4.80;99.90;;;;;;10314325;28;20222;-76
2022/04/08 22:15:24;;;;;;;6.47;3.40;;;4.70;99.90;;;;;;10300605;28;20209;-76
2022/04/08 22:20:47;;;;;;;9.63;4.40;;;4.60;99.90;;;;;;10300302;28;20428;-77
2022/04/08 22:26:09;;;;;;;10.53;4.70;;;4.60;99.90;;;;;;10284342;28;20231;-76
2022/04/08 22:31:30;;;;;;;11.23;6.47;;;4.50;99.90;;;;;;10352589;28;20819;-76
2022/04/08 22:36:52;;;;;;;23.67;13.43;;;4.40;99.90;;;;;;10354950;28;20213;-76
2022/04/08 22:42:14;;;;;;;25.70;14.83;;;4.30;99.90;;;;;;10340063;28;20255;-76
2022/04/08 22:47:36;;;;;;;23.23;13.10;;;4.10;99.90;;;;;;10354950;28;20189;-76
2022/04/08 22:52:57;;;;;;;22.17;12.43;;;4.10;99.90;;;;;;10326130;28;20203;-75
2022/04/08 23:03:58;;;;;;;18.63;8.87;;;3.80;99.90;;;;;;10299639;28;20226;-75
2022/04/08 23:09:20;;;;;;;21.73;10.57;;;3.80;99.90;;;;;;10314189;28;20464;-76
2022/04/08 23:14:41;;;;;;;26.47;13.47;;;3.80;99.90;;;;;;10299238;28;20442;-78
2022/04/08 23:20:04;;;;;;;25.97;11.87;;;3.70;99.90;;;;;;10317446;28;20246;-77
2022/04/08 23:25:25;;;;;;;15.30;8.90;;;3.60;99.90;;;;;;10306589;28;20481;-77
2022/04/08 23:30:46;;;;;;;10.13;6.93;;;3.50;99.90;;;;;;10322155;28;20202;-77
2022/04/08 23:36:08;;;;;;;9.57;6.30;;;3.50;99.90;;;;;;10361373;28;20192;-77
2022/04/08 23:41:29;;;;;;;7.83;5.67;;;3.40;99.90;;;;;;10319135;28;20198;-77
2022/04/08 23:46:51;;;;;;;12.83;6.97;;;3.40;99.90;;;;;;10320695;28;20199;-76
2022/04/08 23:52:12;;;;;;;18.73;8.67;;;3.30;99.90;;;;;;10319008;28;20206;-77
2022/04/08 23:57:33;;;;;;;18.13;9.37;;;3.20;99.90;;;;;;10305907;28;20198;-77
